Time;durP1;ratioP1;P1;durP2;ratioP2;P2;SDS_P1;SDS_P2;PMS_P1;PMS_P2;Temp;Humidity;BMP_temperature;BMP_pressure;BME280_temperature;BME280_humidity;BME280_pressure;Samples;Min_cycle;Max_cycle;Signal;HPM_P1;HPM_P2
2022/01/15 00:00:39;;;;;;;16.40;6.90;;;;;;;2.72;66.59;95382.22;4993448;28;20061;-81
2022/01/15 00:03:06;;;;;;;9.60;5.28;;;;;;;2.79;66.86;95403.09;4995779;28;20034;-81
2022/01/15 00:05:33;;;;;;;10.23;5.32;;;;;;;3.38;66.93;95481.00;4994484;28;20477;-81
2022/01/15 00:08:00;;;;;;;14.07;5.85;;;;;;;3.06;67.03;95462.03;5027697;28;20046;-80
2022/01/15 00:10:27;;;;;;;9.82;5.07;;;;;;;2.95;67.01;95429.50;4996623;28;20037;-80
2022/01/15 00:12:58;;;;;;;10.77;5.40;;;;;;;2.80;67.82;95423.84;4996568;28;20042;-81
2022/01/15 00:15:29;;;;;;;18.42;7.50;;;;;;;3.07;67.59;95448.72;4996061;28;20124;-80
2022/01/15 00:18:00;;;;;;;17.50;6.25;;;;;;;2.82;68.01;95402.69;4994731;28;20042;-80
2022/01/15 00:20:27;;;;;;;10.30;5.75;;;;;;;2.73;68.15;95396.94;4994420;28;20069;-81
2022/01/15 00:22:56;;;;;;;11.80;6.35;;;;;;;3.27;67.83;95473.88;4994358;28;20421;-81
2022/01/15 00:25:25;;;;;;;10.70;6.18;;;;;;;3.27;67.86;95477.31;4994492;28;20034;-80
2022/01/15 00:27:51;;;;;;;11.23;5.60;;;;;;;2.74;68.24;95401.16;4996362;28;20042;-80
2022/01/15 00:30:17;;;;;;;12.23;5.97;;;;;;;3.12;68.78;95489.19;4994351;28;20031;-81
2022/01/15 00:32:44;;;;;;;11.77;5.88;;;;;;;2.89;68.22;95445.31;4995383;28;20073;-80
2022/01/15 00:35:13;;;;;;;10.25;5.38;;;;;;;2.97;68.36;95465.97;5026824;28;20030;-80
2022/01/15 00:37:39;;;;;;;10.50;5.53;;;;;;;3.25;68.89;95494.28;4995737;28;20042;-81
2022/01/15 00:40:08;;;;;;;8.95;5.28;;;;;;;3.03;68.06;95444.13;5026758;28;20034;-80
2022/01/15 00:42:36;;;;;;;9.88;5.50;;;;;;;2.90;68.26;95467.88;4995137;28;20038;-80
2022/01/15 00:45:05;;;;;;;13.77;6.40;;;;;;;2.96;68.29;95462.56;4993859;28;20065;-80
2022/01/15 00:47:31;;;;;;;12.35;6.20;;;;;;;2.91;68.55;95438.00;4993875;28;20461;-80
2022/01/15 00:50:01;;;;;;;11.85;5.88;;;;;;;2.82;68.20;95463.72;4994724;28;20034;-80
2022/01/15 00:52:27;;;;;;;10.77;6.50;;;;;;;3.32;68.36;95510.72;5025407;28;20065;-80
2022/01/15 00:54:54;;;;;;;10.77;6.03;;;;;;;2.97;68.82;95450.25;4994064;28;20065;-79
2022/01/15 00:57:20;;;;;;;9.65;5.25;;;;;;;3.25;68.81;95489.84;4993147;28;20038;-79
2022/01/15 00:59:45;;;;;;;11.68;5.95;;;;;;;3.29;68.43;95479.69;4994126;28;20062;-80
2022/01/15 01:02:11;;;;;;;11.32;5.25;;;;;;;2.70;68.45;95392.91;5026247;28;20104;-80
2022/01/15 01:04:36;;;;;;;12.77;5.88;;;;;;;2.84;68.29;95445.94;4994941;28;20034;-80
2022/01/15 01:07:02;;;;;;;12.10;6.43;;;;;;;3.07;68.58;95463.63;4993150;28;20046;-80
2022/01/15 01:09:41;;;;;;;11.20;5.28;;;;;;;2.85;68.69;95425.78;4992950;28;20081;-79
2022/01/15 01:12:23;;;;;;;14.07;5.70;;;;;;;2.85;68.79;95434.47;5025864;28;20030;-79
2022/01/15 01:23:24;;;;;;;11.93;5.97;;;;;;;2.75;69.20;95439.41;3630265;28;10001040;-79
2022/01/15 01:25:55;;;;;;;10.15;5.72;;;;;;;3.18;68.84;95488.31;5014057;28;20061;-79
2022/01/15 01:28:28;;;;;;;11.07;5.88;;;;;;;3.05;69.27;95486.66;4996229;28;20065;-80
2022/01/15 01:31:19;;;;;;;10.65;5.55;;;;;;;2.97;69.18;95452.88;5013787;28;20030;-80
2022/01/15 01:33:44;;;;;;;10.82;5.93;;;;;;;2.83;68.59;95440.94;5012763;28;20065;-80
2022/01/15 01:38:49;;;;;;;12.60;6.20;;;;;;;2.80;68.62;95418.59;5014158;28;20040;-80
2022/01/15 01:41:18;;;;;;;13.55;6.55;;;;;;;2.99;68.57;95456.06;5029373;28;20036;-80
2022/01/15 01:43:55;;;;;;;17.83;7.00;;;;;;;2.99;68.68;95492.75;4997462;28;20061;-80
2022/01/15 01:48:53;;;;;;;15.13;5.70;;;;;;;2.63;68.35;95405.28;5014072;28;20038;-80
2022/01/15 01:51:31;;;;;;;13.75;7.35;;;;;;;3.12;68.22;95484.75;4995457;28;20365;-80
2022/01/15 01:53:59;;;;;;;11.27;5.88;;;;;;;3.10;67.49;95468.44;5013421;28;20034;-80
2022/01/15 01:56:25;;;;;;;17.40;6.32;;;;;;;2.89;67.66;95414.69;5028339;28;20033;-79
2022/01/15 01:58:50;;;;;;;14.75;7.03;;;;;;;2.73;67.96;95399.56;4996095;28;20490;-79
2022/01/15 02:01:16;;;;;;;10.95;6.05;;;;;;;2.95;67.63;95444.44;5028322;28;20026;-79
2022/01/15 02:03:41;;;;;;;11.48;6.80;;;;;;;2.93;66.82;95436.78;4995598;28;20069;-80
2022/01/15 02:06:08;;;;;;;14.55;6.78;;;;;;;2.20;66.69;95337.31;5028821;28;20137;-79
2022/01/15 02:08:35;;;;;;;14.05;6.75;;;;;;;3.21;66.54;95480.00;5028205;28;20096;-79
2022/01/15 02:11:05;;;;;;;20.15;7.60;;;;;;;2.90;66.00;95454.78;4994975;28;20501;-80
2022/01/15 02:13:32;;;;;;;17.33;7.68;;;;;;;3.19;65.98;95476.81;4994976;28;20092;-80
2022/01/15 02:15:58;;;;;;;14.05;6.45;;;;;;;3.17;66.02;95470.97;4994744;28;20037;-80
2022/01/15 02:18:25;;;;;;;14.70;7.25;;;;;;;3.16;65.81;95485.09;5013562;28;20034;-79
2022/01/15 02:23:32;;;;;;;18.52;8.63;;;;;;;2.66;65.93;95412.72;5013185;28;20038;-80
2022/01/15 02:23:50;;;;;;;19.45;8.45;;;;;;;2.91;65.76;95454.53;5012971;28;20108;-79
2022/01/15 02:26:26;;;;;;;18.70;7.78;;;;;;;3.10;66.52;95481.53;5028822;28;20096;-80
2022/01/15 02:28:55;;;;;;;14.18;6.63;;;;;;;2.41;66.77;95369.28;4995363;28;20037;-79
2022/01/15 02:31:22;;;;;;;14.20;7.18;;;;;;;2.84;66.89;95445.16;5028610;28;20022;-79
2022/01/15 02:33:51;;;;;;;13.90;6.22;;;;;;;2.97;67.12;95471.22;5028592;28;20120;-80
2022/01/15 02:36:28;;;;;;;15.77;6.65;;;;;;;3.10;67.46;95484.16;4995474;28;20524;-80
2022/01/15 02:38:54;;;;;;;15.48;6.90;;;;;;;3.15;66.67;95489.53;5012701;28;20037;-79
2022/01/15 02:41:26;;;;;;;13.38;7.55;;;;;;;3.01;66.89;95480.22;4995729;28;20033;-79
2022/01/15 02:43:52;;;;;;;15.65;6.93;;;;;;;3.20;66.33;95502.81;5013235;28;20517;-79
2022/01/15 02:46:33;;;;;;;13.18;6.80;;;;;;;3.06;65.77;95481.16;5013721;28;20076;-79
2022/01/15 02:49:01;;;;;;;12.15;6.75;;;;;;;3.27;65.85;95506.16;5014090;28;20026;-79
2022/01/15 02:51:29;;;;;;;13.02;6.28;;;;;;;2.80;65.83;95423.03;4996161;28;20416;-79
2022/01/15 02:53:55;;;;;;;16.02;7.32;;;;;;;2.95;65.30;95455.72;4995281;28;20026;-80
2022/01/15 02:56:25;;;;;;;13.88;6.57;;;;;;;2.72;65.39;95408.44;4996496;28;20041;-80
2022/01/15 02:58:52;;;;;;;13.13;6.38;;;;;;;2.85;65.29;95426.59;4997062;28;20525;-80
2022/01/15 03:01:18;;;;;;;14.00;7.15;;;;;;;3.14;65.37;95479.28;5014769;28;20057;-79
2022/01/15 03:03:44;;;;;;;15.10;7.30;;;;;;;2.34;65.48;95366.75;5032325;28;20461;-79
2022/01/15 03:06:15;;;;;;;13.52;7.28;;;;;;;2.99;65.20;95477.03;4998986;28;20041;-79
2022/01/15 03:08:42;;;;;;;15.82;7.20;;;;;;;3.09;65.64;95512.19;4998513;28;20037;-79
2022/01/15 03:11:08;;;;;;;15.13;6.57;;;;;;;3.13;65.27;95502.06;4999140;28;20061;-79
2022/01/15 03:13:34;;;;;;;14.38;7.07;;;;;;;2.78;65.06;95472.22;4999460;28;20034;-79
2022/01/15 03:16:00;;;;;;;17.15;7.72;;;;;;;3.16;64.72;95511.31;4998448;28;20029;-79
2022/01/15 03:18:26;;;;;;;16.23;7.60;;;;;;;2.79;63.82;95464.16;4998192;28;20026;-80
2022/01/15 03:21:05;;;;;;;20.25;8.10;;;;;;;2.90;64.19;95479.13;2130441;28;10022813;-79
2022/01/15 03:23:31;;;;;;;15.02;7.40;;;;;;;2.60;63.76;95426.66;3631772;28;10001193;-80
2022/01/15 03:25:57;;;;;;;17.75;8.32;;;;;;;2.80;64.21;95462.34;4998407;28;20432;-79
2022/01/15 03:28:23;;;;;;;16.33;8.07;;;;;;;2.58;63.78;95423.47;5016129;28;20112;-79
2022/01/15 03:30:49;;;;;;;20.15;8.98;;;;;;;2.99;63.30;95532.03;4998647;28;20128;-79
2022/01/15 03:33:14;;;;;;;18.83;8.38;;;;;;;2.16;63.67;95379.81;4998392;28;20040;-79
2022/01/15 03:35:40;;;;;;;21.23;8.98;;;;;;;2.66;64.11;95472.94;5015775;28;20081;-79
2022/01/15 03:38:06;;;;;;;17.38;9.00;;;;;;;2.12;63.80;95399.56;5016370;28;20030;-79
2022/01/15 03:40:33;;;;;;;18.88;8.90;;;;;;;2.18;63.85;95423.06;4998393;28;20038;-79
2022/01/15 03:42:59;;;;;;;18.15;8.85;;;;;;;2.40;63.97;95485.47;5016869;28;20037;-80
2022/01/15 03:45:25;;;;;;;16.98;8.80;;;;;;;2.74;64.50;95512.97;4997646;28;20468;-80
2022/01/15 03:47:51;;;;;;;22.17;9.40;;;;;;;2.72;64.31;95519.22;5030768;28;20045;-80
2022/01/15 03:50:18;;;;;;;16.90;8.55;;;;;;;2.45;64.42;95503.94;5016092;28;20089;-79
2022/01/15 03:52:43;;;;;;;22.33;9.73;;;;;;;2.74;64.64;95533.91;5015809;28;20512;-79
2022/01/15 03:55:10;;;;;;;21.05;9.18;;;;;;;2.70;64.63;95544.00;4997291;28;20217;-80
2022/01/15 03:57:36;;;;;;;18.30;9.38;;;;;;;2.25;64.74;95463.06;4997679;28;20049;-80
2022/01/15 04:00:06;;;;;;;19.35;9.38;;;;;;;2.71;64.82;95541.19;4997034;28;20420;-79
2022/01/15 04:02:32;;;;;;;18.63;8.55;;;;;;;2.15;64.94;95427.91;4997650;28;20520;-80
2022/01/15 04:04:57;;;;;;;18.58;8.93;;;;;;;2.29;65.21;95489.56;4997515;28;20121;-79
2022/01/15 04:07:23;;;;;;;19.13;9.15;;;;;;;2.70;65.39;95531.72;4997405;28;20493;-80
2022/01/15 04:09:48;;;;;;;17.95;8.68;;;;;;;2.50;65.15;95509.34;5015255;28;20097;-79
2022/01/15 04:12:13;;;;;;;15.13;8.15;;;;;;;2.59;65.46;95529.03;5029587;28;20469;-80
2022/01/15 04:14:39;;;;;;;17.38;7.80;;;;;;;2.61;65.14;95519.91;5029323;28;20088;-80
2022/01/15 04:17:04;;;;;;;19.58;9.93;;;;;;;2.62;65.29;95542.47;5029878;28;20394;-80
2022/01/15 04:19:31;;;;;;;15.93;8.65;;;;;;;2.83;65.50;95562.22;4997366;28;20038;-80
2022/01/15 04:21:57;;;;;;;19.17;9.65;;;;;;;2.63;64.98;95543.28;4997620;28;20509;-79
2022/01/15 04:24:22;;;;;;;20.48;10.00;;;;;;;2.42;65.36;95527.94;5030150;28;20032;-80
2022/01/15 04:26:48;;;;;;;22.67;10.05;;;;;;;2.43;65.32;95525.13;5015030;28;20405;-80
2022/01/15 04:29:15;;;;;;;19.80;9.90;;;;;;;2.75;65.50;95583.44;5015102;28;20029;-80
2022/01/15 04:31:48;;;;;;;24.15;10.45;;;;;;;2.54;65.15;95549.78;4997592;28;20461;-80
2022/01/15 04:34:25;;;;;;;21.02;10.80;;;;;;;2.40;65.79;95543.88;5030148;28;20034;-80
2022/01/15 04:36:53;;;;;;;18.92;10.30;;;;;;;1.95;65.82;95498.72;5030017;28;20034;-80
2022/01/15 04:39:19;;;;;;;22.45;10.95;;;;;;;2.65;66.10;95598.84;4996954;28;20029;-80
2022/01/15 04:41:45;;;;;;;21.52;10.30;;;;;;;2.64;66.05;95605.09;5029525;28;20033;-80
2022/01/15 04:44:11;;;;;;;22.63;11.35;;;;;;;2.49;65.51;95574.00;5014641;28;20080;-80
2022/01/15 04:46:37;;;;;;;23.77;10.88;;;;;;;2.34;65.71;95565.66;5015534;28;20030;-80
2022/01/15 04:49:04;;;;;;;22.58;11.23;;;;;;;2.11;66.34;95526.16;4997402;28;20030;-80
2022/01/15 04:51:30;;;;;;;25.55;11.45;;;;;;;2.38;66.75;95585.16;5014760;28;20057;-80
2022/01/15 04:53:56;;;;;;;23.10;11.40;;;;;;;2.14;66.48;95554.50;5014123;28;20030;-79
2022/01/15 04:56:21;;;;;;;24.17;11.40;;;;;;;2.00;66.77;95524.22;5030059;28;20037;-79
2022/01/15 04:58:47;;;;;;;23.20;11.50;;;;;;;2.44;67.05;95596.59;5014316;28;20038;-80
2022/01/15 05:01:12;;;;;;;23.38;11.18;;;;;;;2.20;67.11;95569.38;4997132;28;20034;-80
2022/01/15 05:03:38;;;;;;;24.75;10.90;;;;;;;2.12;67.03;95548.72;5029775;28;20041;-80
2022/01/15 05:06:03;;;;;;;25.30;11.80;;;;;;;2.37;67.11;95595.81;5014178;28;20040;-80
2022/01/15 05:08:29;;;;;;;22.95;12.00;;;;;;;2.09;67.44;95552.53;5029683;28;20041;-80
2022/01/15 05:10:58;;;;;;;25.90;13.10;;;;;;;2.22;67.64;95588.28;4997053;28;20402;-80
2022/01/15 05:13:28;;;;;;;30.27;12.82;;;;;;;1.63;67.95;95513.56;5015369;28;20104;-80
2022/01/15 05:15:54;;;;;;;28.42;13.18;;;;;;;2.38;68.02;95628.84;5004393;28;20088;-80
2022/01/15 05:18:19;;;;;;;25.40;12.48;;;;;;;2.07;68.36;95585.94;5022295;28;20064;-80
2022/01/15 05:20:50;;;;;;;25.45;12.40;;;;;;;1.86;68.56;95558.31;1457862;28;10022744;-80
2022/01/15 05:23:15;;;;;;;24.60;12.15;;;;;;;1.93;69.01;95587.84;3962254;28;10001078;-80
2022/01/15 05:25:40;;;;;;;27.20;12.43;;;;;;;1.77;68.75;95553.53;4995412;28;20030;-81
2022/01/15 05:28:07;;;;;;;25.95;13.15;;;;;;;2.08;69.03;95605.88;5014731;28;20038;-80
2022/01/15 05:30:33;;;;;;;22.42;11.80;;;;;;;1.67;69.21;95543.53;4997686;28;20026;-81
2022/01/15 05:32:59;;;;;;;27.48;13.02;;;;;;;1.54;69.51;95536.53;5015479;28;20171;-80
2022/01/15 05:35:27;;;;;;;28.08;14.00;;;;;;;1.75;69.41;95563.41;4997580;28;20045;-80
2022/01/15 05:37:54;;;;;;;31.95;14.88;;;;;;;1.81;69.44;95579.06;4997132;28;20133;-80
2022/01/15 05:40:19;;;;;;;30.92;13.55;;;;;;;1.47;69.28;95532.34;5014562;28;20061;-80
2022/01/15 05:42:46;;;;;;;30.85;13.70;;;;;;;2.01;69.13;95618.19;5014720;28;20018;-80
2022/01/15 05:45:12;;;;;;;28.60;13.70;;;;;;;1.67;69.30;95554.00;5014628;28;20046;-80
2022/01/15 05:47:38;;;;;;;29.13;13.48;;;;;;;2.00;69.79;95623.63;5015027;28;20026;-80
2022/01/15 05:50:04;;;;;;;30.08;13.52;;;;;;;1.39;69.90;95549.06;4996610;28;20520;-80
2022/01/15 05:52:29;;;;;;;27.60;14.05;;;;;;;1.79;69.77;95594.16;5029553;28;20056;-80
2022/01/15 05:54:55;;;;;;;32.55;13.77;;;;;;;1.98;69.78;95649.22;5014213;28;20038;-80
2022/01/15 05:57:20;;;;;;;29.75;14.98;;;;;;;1.81;70.02;95620.91;5015072;28;20038;-80
2022/01/15 05:59:46;;;;;;;26.83;13.52;;;;;;;2.09;70.20;95643.31;5013878;28;20067;-80
2022/01/15 06:02:11;;;;;;;34.08;16.98;;;;;;;1.89;70.16;95649.44;5029507;28;20406;-80
2022/01/15 06:04:37;;;;;;;29.95;13.95;;;;;;;1.72;70.12;95634.41;5029650;28;20029;-80
2022/01/15 06:07:02;;;;;;;36.95;15.10;;;;;;;1.90;70.32;95671.97;5029320;28;20512;-80
2022/01/15 06:09:28;;;;;;;30.27;14.45;;;;;;;2.02;70.45;95685.19;5014635;28;20044;-81
2022/01/15 06:11:56;;;;;;;31.13;14.60;;;;;;;2.00;70.51;95675.94;4996887;28;20034;-80
2022/01/15 06:14:21;;;;;;;28.58;15.23;;;;;;;1.67;71.03;95623.78;4996235;28;20042;-80
2022/01/15 06:16:47;;;;;;;29.35;13.73;;;;;;;1.52;71.12;95624.84;4996774;28;20030;-80
2022/01/15 06:19:12;;;;;;;35.67;15.32;;;;;;;2.01;71.12;95698.47;5014047;28;20044;-80
2022/01/15 06:21:38;;;;;;;30.13;15.00;;;;;;;1.78;71.03;95662.34;5014198;28;20038;-80
2022/01/15 06:24:04;;;;;;;33.72;16.05;;;;;;;1.69;70.94;95664.38;5028508;28;20036;-80
2022/01/15 06:26:29;;;;;;;30.88;15.50;;;;;;;1.13;70.87;95580.53;5014237;28;20559;-80
2022/01/15 06:28:54;;;;;;;30.05;14.90;;;;;;;1.46;71.04;95611.78;5013803;28;20034;-80
2022/01/15 06:31:20;;;;;;;28.55;15.55;;;;;;;1.27;71.03;95595.16;5029215;28;20034;-80
2022/01/15 06:33:45;;;;;;;30.55;16.17;;;;;;;1.53;71.01;95647.34;4996536;28;20022;-81
2022/01/15 06:36:11;;;;;;;34.78;15.98;;;;;;;1.40;71.53;95647.38;5030795;28;20033;-80
2022/01/15 06:38:36;;;;;;;35.38;15.93;;;;;;;1.48;71.98;95659.44;5032655;28;20464;-80
2022/01/15 06:41:02;;;;;;;26.60;14.70;;;;;;;1.73;71.80;95696.97;5032793;28;20056;-79
2022/01/15 06:43:27;;;;;;;33.03;16.00;;;;;;;1.33;71.66;95656.25;5032764;28;20026;-80
2022/01/15 06:45:53;;;;;;;32.72;15.85;;;;;;;1.46;71.81;95677.13;5032426;28;20428;-80
2022/01/15 06:48:18;;;;;;;34.30;16.52;;;;;;;1.64;72.05;95740.03;5017904;28;20049;-80
2022/01/15 06:50:44;;;;;;;32.00;17.38;;;;;;;1.76;72.40;95733.16;5017679;28;20398;-80
2022/01/15 06:53:11;;;;;;;34.00;17.00;;;;;;;1.82;71.94;95727.13;5032549;28;20026;-80
2022/01/15 06:55:36;;;;;;;30.30;16.95;;;;;;;1.42;72.26;95668.09;4999574;28;20080;-80
2022/01/15 06:58:02;;;;;;;32.65;16.30;;;;;;;1.58;71.60;95691.19;5032447;28;20049;-80
2022/01/15 07:00:27;;;;;;;30.00;16.02;;;;;;;1.91;71.76;95735.53;5032538;28;20029;-80
2022/01/15 07:02:53;;;;;;;33.80;15.95;;;;;;;1.35;71.64;95641.97;5030199;28;20038;-79
2022/01/15 07:05:20;;;;;;;32.10;16.60;;;;;;;1.61;71.85;95682.91;5017067;28;20088;-79
2022/01/15 07:07:47;;;;;;;31.05;14.82;;;;;;;1.78;71.68;95691.13;4999528;28;20057;-79
2022/01/15 07:10:13;;;;;;;30.50;15.45;;;;;;;1.31;71.13;95630.31;5032449;28;20054;-79
2022/01/15 07:12:39;;;;;;;35.08;15.75;;;;;;;1.73;71.44;95696.16;4998735;28;20041;-79
2022/01/15 07:15:05;;;;;;;31.70;15.75;;;;;;;1.84;71.33;95716.44;5017061;28;20037;-79
2022/01/15 07:17:31;;;;;;;28.58;14.82;;;;;;;1.21;71.43;95629.16;4998959;28;20098;-79
2022/01/15 07:20:09;;;;;;;34.45;15.63;;;;;;;2.11;71.35;95754.59;2726592;28;10002537;-79
2022/01/15 07:22:35;;;;;;;27.88;14.93;;;;;;;1.67;71.61;95715.28;2931373;28;10001479;-79
2022/01/15 07:25:01;;;;;;;33.55;15.15;;;;;;;2.09;71.54;95774.94;4998443;28;20040;-79
2022/01/15 07:27:26;;;;;;;31.23;15.85;;;;;;;1.90;71.52;95733.94;5016774;28;20034;-80
2022/01/15 07:29:52;;;;;;;34.47;16.27;;;;;;;1.91;71.32;95753.84;4998597;28;20115;-79
2022/01/15 07:32:17;;;;;;;33.00;14.93;;;;;;;1.59;71.26;95703.25;4998020;28;20520;-79
2022/01/15 07:34:43;;;;;;;31.30;16.65;;;;;;;2.01;71.34;95793.47;4998652;28;20473;-79
2022/01/15 07:37:08;;;;;;;29.83;15.27;;;;;;;2.17;71.52;95792.22;5031951;28;20057;-80
2022/01/15 07:39:35;;;;;;;33.67;16.60;;;;;;;1.66;71.22;95698.00;5016652;28;20037;-80
2022/01/15 07:42:00;;;;;;;32.53;16.58;;;;;;;1.68;70.78;95698.59;5016766;28;20029;-79
2022/01/15 07:44:26;;;;;;;39.72;16.55;;;;;;;2.26;71.12;95799.66;5003748;28;20140;-79
2022/01/15 07:46:51;;;;;;;31.58;15.65;;;;;;;1.88;70.51;95726.31;5037227;28;20445;-79
2022/01/15 07:49:17;;;;;;;29.80;15.52;;;;;;;2.26;70.57;95765.63;5031398;28;20038;-79
2022/01/15 07:51:42;;;;;;;37.30;16.77;;;;;;;1.99;70.17;95719.59;4998273;28;20152;-79
2022/01/15 07:54:08;;;;;;;32.42;16.30;;;;;;;1.84;70.48;95703.34;4998783;28;20033;-80
2022/01/15 07:56:33;;;;;;;32.47;15.30;;;;;;;2.12;70.31;95744.94;5016387;28;20054;-80
2022/01/15 07:58:59;;;;;;;32.80;16.15;;;;;;;2.16;70.18;95749.53;4998768;28;20045;-80
2022/01/15 08:01:24;;;;;;;36.13;16.92;;;;;;;2.08;69.86;95731.47;4998479;28;20416;-80
2022/01/15 08:03:49;;;;;;;32.97;17.02;;;;;;;2.20;69.46;95747.31;4996983;28;20406;-79
2022/01/15 08:06:15;;;;;;;38.92;17.98;;;;;;;2.51;68.80;95786.66;5030276;28;20041;-80
2022/01/15 08:08:41;;;;;;;35.90;17.55;;;;;;;2.65;68.77;95822.25;5015752;28;20033;-79
2022/01/15 08:11:07;;;;;;;38.72;17.77;;;;;;;2.40;68.54;95762.94;5015067;28;20061;-80
2022/01/15 08:13:33;;;;;;;37.55;16.55;;;;;;;2.60;68.61;95810.78;4997219;28;20107;-79
2022/01/15 08:16:01;;;;;;;35.55;16.27;;;;;;;2.66;68.56;95825.69;5015123;28;20088;-79
2022/01/15 08:18:27;;;;;;;40.70;17.10;;;;;;;2.50;68.02;95797.34;5015231;28;20038;-80
2022/01/15 08:20:53;;;;;;;40.40;17.65;;;;;;;2.38;68.25;95770.19;4997576;28;20095;-80
2022/01/15 08:23:18;;;;;;;32.78;16.45;;;;;;;2.40;68.02;95791.72;5015335;28;20065;-80
2022/01/15 08:25:44;;;;;;;29.73;16.48;;;;;;;2.67;68.37;95856.09;4997428;28;20137;-79
2022/01/15 08:28:10;;;;;;;43.17;18.33;;;;;;;2.64;68.34;95830.31;5014367;28;20033;-80
2022/01/15 08:30:35;;;;;;;34.13;16.20;;;;;;;2.13;67.69;95752.59;4996783;28;20048;-80
2022/01/15 08:33:01;;;;;;;37.03;16.85;;;;;;;2.77;67.98;95853.81;4996850;28;20101;-79
2022/01/15 08:35:27;;;;;;;33.70;16.73;;;;;;;2.29;67.08;95782.69;5014935;28;20041;-80
2022/01/15 08:37:54;;;;;;;34.33;17.55;;;;;;;2.56;67.39;95813.03;5014168;28;20469;-79
2022/01/15 08:40:20;;;;;;;35.70;16.23;;;;;;;2.74;67.35;95840.34;4996503;28;20425;-79
2022/01/15 08:42:47;;;;;;;34.15;17.52;;;;;;;2.51;67.50;95820.72;5014422;28;20038;-80
2022/01/15 08:45:14;;;;;;;37.35;17.67;;;;;;;2.65;67.06;95853.69;4996714;28;20050;-80
2022/01/15 08:47:40;;;;;;;35.30;16.92;;;;;;;2.45;67.18;95807.63;4995643;28;20041;-79
2022/01/15 08:50:08;;;;;;;42.17;16.45;;;;;;;2.89;66.63;95893.28;5014023;28;20523;-79
2022/01/15 08:52:34;;;;;;;36.55;19.30;;;;;;;2.51;66.86;95838.22;4996724;28;20033;-79
2022/01/15 08:55:02;;;;;;;35.67;16.05;;;;;;;2.36;66.54;95808.88;5015027;28;20570;-79
2022/01/15 08:57:28;;;;;;;34.33;16.63;;;;;;;2.45;66.96;95818.09;4996672;28;20042;-79
2022/01/15 08:59:53;;;;;;;37.63;17.42;;;;;;;2.66;66.49;95828.28;5014075;28;20048;-79
2022/01/15 09:02:19;;;;;;;35.47;18.38;;;;;;;3.06;66.64;95892.59;5028600;28;20049;-79
2022/01/15 09:04:44;;;;;;;44.28;18.48;;;;;;;3.05;66.19;95888.34;4996150;28;20038;-79
2022/01/15 09:07:10;;;;;;;29.33;16.50;;;;;;;2.88;65.80;95871.53;5014364;28;20041;-79
2022/01/15 09:09:36;;;;;;;52.17;17.45;;;;;;;3.15;65.73;95887.09;5014395;28;20100;-80
2022/01/15 09:12:02;;;;;;;36.92;17.40;;;;;;;3.14;65.80;95888.09;4996606;28;20064;-80
2022/01/15 09:14:27;;;;;;;30.25;16.23;;;;;;;2.81;65.53;95836.69;5014418;28;20051;-79
2022/01/15 09:16:53;;;;;;;31.10;15.43;;;;;;;2.40;65.57;95797.78;4996939;28;20488;-79
2022/01/15 09:19:35;;;;;;;39.93;16.76;;;;;;;2.72;66.16;95854.47;4408916;28;10001203;-79
2022/01/15 09:22:01;;;;;;;38.42;16.33;;;;;;;2.77;66.06;95874.78;1379511;28;10002014;-79
2022/01/15 09:24:26;;;;;;;37.83;16.42;;;;;;;2.12;66.09;95792.84;4996588;28;20042;-79
2022/01/15 09:32:04;;;;;;;34.38;16.20;;;;;;;2.75;65.99;95860.31;5014755;28;20512;-80
2022/01/15 09:34:32;;;;;;;26.50;14.85;;;;;;;2.65;66.07;95863.34;4996448;28;20033;-80
2022/01/15 09:36:57;;;;;;;34.72;16.27;;;;;;;2.56;65.68;95847.06;5013824;28;20116;-80
2022/01/15 09:39:23;;;;;;;31.10;14.93;;;;;;;2.87;65.24;95866.47;4995816;28;20065;-79
2022/01/15 09:41:51;;;;;;;26.38;14.05;;;;;;;2.93;65.04;95876.94;5029381;28;20120;-80
2022/01/15 09:44:18;;;;;;;29.88;14.20;;;;;;;2.10;64.11;95757.41;5013661;28;20132;-80
2022/01/15 09:46:47;;;;;;;34.10;14.27;;;;;;;2.71;64.54;95865.94;4996137;28;20543;-79
2022/01/15 09:49:15;;;;;;;30.52;13.77;;;;;;;2.67;64.55;95833.31;5013161;28;20034;-80
2022/01/15 09:51:42;;;;;;;32.75;13.43;;;;;;;2.65;64.48;95805.72;4996077;28;20033;-80
2022/01/15 09:54:08;;;;;;;31.65;15.77;;;;;;;3.16;64.12;95862.50;5013515;28;20040;-80
2022/01/15 09:56:33;;;;;;;27.27;13.18;;;;;;;2.86;63.37;95825.56;5028563;28;20049;-80
2022/01/15 09:59:02;;;;;;;37.15;16.35;;;;;;;3.28;63.46;95860.84;4994852;28;20038;-80
2022/01/15 10:01:29;;;;;;;33.88;12.63;;;;;;;3.29;63.19;95870.28;5028136;28;20030;-80
2022/01/15 10:03:56;;;;;;;35.67;14.50;;;;;;;3.07;63.09;95815.56;4996049;28;20034;-80
2022/01/15 10:06:21;;;;;;;33.80;13.68;;;;;;;3.38;62.69;95885.56;5028760;28;20112;-80
2022/01/15 10:09:08;;;;;;;32.10;13.05;;;;;;;2.77;62.94;95779.69;5013673;28;20466;-80
2022/01/15 10:11:52;;;;;;;39.35;14.20;;;;;;;3.48;62.53;95870.19;5016310;28;20056;-79
2022/01/15 10:14:26;;;;;;;24.42;12.15;;;;;;;3.41;62.35;95872.03;5032961;28;20476;-80
2022/01/15 10:16:52;;;;;;;33.78;12.88;;;;;;;2.87;62.71;95806.22;5017602;28;20036;-80
2022/01/15 10:19:33;;;;;;;32.17;13.45;;;;;;;3.32;62.41;95868.06;5032735;28;20431;-80
2022/01/15 10:22:14;;;;;;;26.63;13.40;;;;;;;3.27;62.37;95860.03;5032367;28;20041;-80
2022/01/15 10:24:42;;;;;;;28.38;12.60;;;;;;;2.53;62.99;95781.19;5017620;28;20156;-80
2022/01/15 10:27:35;;;;;;;28.55;13.50;;;;;;;3.27;62.75;95856.59;4999924;28;20103;-80
2022/01/15 10:30:16;;;;;;;27.25;14.23;;;;;;;3.05;62.86;95828.06;4998319;28;20069;-80
2022/01/15 10:33:00;;;;;;;30.90;13.77;;;;;;;3.39;62.13;95850.47;5032171;28;20022;-80
2022/01/15 10:35:30;;;;;;;33.30;14.68;;;;;;;2.96;62.04;95778.78;5032011;28;20375;-80
2022/01/15 10:38:01;;;;;;;30.42;14.57;;;;;;;3.55;61.55;95848.34;5017834;28;20037;-80
2022/01/15 10:40:33;;;;;;;38.78;14.38;;;;;;;3.59;61.63;95860.81;4999342;28;20080;-80
2022/01/15 10:43:00;;;;;;;33.33;14.88;;;;;;;3.73;61.22;95853.66;4998989;28;20045;-79
2022/01/15 10:45:31;;;;;;;27.88;14.77;;;;;;;3.50;62.04;95843.75;5017333;28;20517;-80
2022/01/15 10:48:01;;;;;;;30.67;15.45;;;;;;;3.34;61.51;95763.78;5017540;28;20037;-80
2022/01/15 10:50:30;;;;;;;28.20;13.48;;;;;;;4.34;60.14;95852.91;5017036;28;20155;-79
2022/01/15 10:52:58;;;;;;;35.20;13.77;;;;;;;4.54;59.46;95828.03;5016149;28;20049;-79
2022/01/15 10:55:33;;;;;;;25.10;12.48;;;;;;;4.96;57.97;95823.66;5017137;28;20034;-80
2022/01/15 10:58:14;;;;;;;25.42;12.77;;;;;;;5.35;57.32;95826.75;4998347;28;20436;-79
2022/01/15 11:00:46;;;;;;;24.15;12.82;;;;;;;5.57;56.20;95846.25;5016949;28;20417;-79
2022/01/15 11:03:13;;;;;;;;;;;;;;;5.68;55.30;95836.78;5016346;28;20420;-79
2022/01/15 11:06:05;;;;;;;25.42;12.50;;;;;;;5.30;54.64;95789.81;5016273;28;19917;-79
2022/01/15 11:08:35;;;;;;;23.63;12.10;;;;;;;5.30;55.10;95781.94;4995963;28;20436;-79
2022/01/15 11:11:09;;;;;;;20.25;10.88;;;;;;;5.29;53.88;95789.00;5016894;28;20390;-79
2022/01/15 11:13:42;;;;;;;26.27;12.23;;;;;;;5.23;55.16;95794.38;5016500;28;20076;-79
2022/01/15 11:16:14;;;;;;;23.58;11.70;;;;;;;5.39;54.26;95809.50;4998671;28;20038;-79
2022/01/15 11:18:45;;;;;;;18.13;10.80;;;;;;;5.20;55.27;95792.19;4964649;28;20057;-80
2022/01/15 11:21:16;;;;;;;19.54;10.58;;;;;;;5.36;55.14;95844.16;315291;28;10022944;-80
2022/01/15 11:23:43;;;;;;;26.10;12.13;;;;;;;5.04;55.67;95825.16;5015261;28;20026;-80
2022/01/15 11:26:11;;;;;;;22.70;11.45;;;;;;;4.34;56.50;95805.63;5016565;28;20125;-80
2022/01/15 11:28:37;;;;;;;21.08;11.45;;;;;;;4.65;55.67;95774.72;5015626;28;20045;-80
2022/01/15 11:31:07;;;;;;;32.63;11.40;;;;;;;5.23;55.39;95800.44;5016101;28;20429;-80
2022/01/15 11:33:36;;;;;;;27.33;12.23;;;;;;;5.72;54.52;95832.69;4998123;28;20034;-80
2022/01/15 11:36:02;;;;;;;26.95;12.70;;;;;;;6.04;53.24;95835.81;4998336;28;20038;-80
2022/01/15 11:38:36;;;;;;;23.95;11.82;;;;;;;5.76;53.28;95826.75;5015787;28;20036;-79
2022/01/15 11:41:02;;;;;;;25.80;11.85;;;;;;;5.44;53.19;95775.44;5030826;28;20052;-80
2022/01/15 11:43:29;;;;;;;21.73;11.65;;;;;;;6.02;53.71;95845.78;4997966;28;20128;-80
2022/01/15 11:46:01;;;;;;;22.02;11.07;;;;;;;5.60;52.72;95780.03;5030939;28;20042;-80
2022/01/15 11:48:29;;;;;;;21.83;10.57;;;;;;;5.23;53.11;95752.31;5015849;28;20106;-80